sensor_id;sensor_type;location;lat;lon;timestamp;pressure;altitude;pressure_sealevel;temperature;humidity
23166;BME280;11751;42.700;24.170;2023-07-31T00:00:00;93573.16;;;23.86;nan
23166;BME280;11751;42.700;24.170;2023-07-31T00:02:25;93567.59;;;23.90;nan
23166;BME280;11751;42.700;24.170;2023-07-31T00:04:51;93573.81;;;23.85;nan
23166;BME280;11751;42.700;24.170;2023-07-31T00:07:16;93569.50;;;23.84;nan
23166;BME280;11751;42.700;24.170;2023-07-31T00:09:42;93568.41;;;23.93;nan
23166;BME280;11751;42.700;24.170;2023-07-31T00:12:07;93568.53;;;23.77;nan
23166;BME280;11751;42.700;24.170;2023-07-31T00:14:33;93574.06;;;23.73;nan
23166;BME280;11751;42.700;24.170;2023-07-31T00:16:58;93565.59;;;23.75;nan
23166;BME280;11751;42.700;24.170;2023-07-31T00:19:24;93554.56;;;23.50;nan
23166;BME280;11751;42.700;24.170;2023-07-31T00:21:49;93564.97;;;23.42;nan
23166;BME280;11751;42.700;24.170;2023-07-31T00:24:14;93571.69;;;23.31;nan
23166;BME280;11751;42.700;24.170;2023-07-31T00:26:40;93571.69;;;23.14;nan
23166;BME280;11751;42.700;24.170;2023-07-31T00:29:05;93577.09;;;22.90;nan
23166;BME280;11751;42.700;24.170;2023-07-31T00:31:31;93576.59;;;22.78;nan
23166;BME280;11751;42.700;24.170;2023-07-31T00:33:56;93577.44;;;22.98;nan
23166;BME280;11751;42.700;24.170;2023-07-31T00:36:22;93573.03;;;22.95;nan
23166;BME280;11751;42.700;24.170;2023-07-31T00:38:47;93588.72;;;23.12;nan
23166;BME280;11751;42.700;24.170;2023-07-31T00:41:13;93587.63;;;22.86;nan
23166;BME280;11751;42.700;24.170;2023-07-31T00:43:38;93585.25;;;22.80;nan
23166;BME280;11751;42.700;24.170;2023-07-31T00:46:04;93592.38;;;22.64;nan
23166;BME280;11751;42.700;24.170;2023-07-31T00:48:30;93602.28;;;22.61;nan
23166;BME280;11751;42.700;24.170;2023-07-31T00:50:55;93593.63;;;22.59;nan
23166;BME280;11751;42.700;24.170;2023-07-31T00:53:21;93601.53;;;22.60;nan
23166;BME280;11751;42.700;24.170;2023-07-31T00:55:46;93597.53;;;22.67;nan
23166;BME280;11751;42.700;24.170;2023-07-31T00:58:12;93594.09;;;22.53;nan
23166;BME280;11751;42.700;24.170;2023-07-31T01:00:37;93592.88;;;22.58;nan
23166;BME280;11751;42.700;24.170;2023-07-31T01:03:02;93597.03;;;22.55;nan
23166;BME280;11751;42.700;24.170;2023-07-31T01:05:57;93602.22;;;22.43;nan
23166;BME280;11751;42.700;24.170;2023-07-31T01:10:56;93592.38;;;22.16;nan
23166;BME280;11751;42.700;24.170;2023-07-31T01:13:25;93591.84;;;22.04;nan
23166;BME280;11751;42.700;24.170;2023-07-31T01:15:51;93591.13;;;21.88;nan
23166;BME280;11751;42.700;24.170;2023-07-31T01:18:17;93591.94;;;21.75;nan
23166;BME280;11751;42.700;24.170;2023-07-31T01:20:42;93590.66;;;21.62;nan
23166;BME280;11751;42.700;24.170;2023-07-31T01:26:11;93574.53;;;21.69;nan
23166;BME280;11751;42.700;24.170;2023-07-31T01:29:03;93581.34;;;21.62;nan
23166;BME280;11751;42.700;24.170;2023-07-31T01:31:32;93571.69;;;21.53;nan
23166;BME280;11751;42.700;24.170;2023-07-31T01:34:01;93579.28;;;21.49;nan
23166;BME280;11751;42.700;24.170;2023-07-31T01:36:27;93562.38;;;21.53;nan
23166;BME280;11751;42.700;24.170;2023-07-31T01:38:58;93569.56;;;21.54;nan
23166;BME280;11751;42.700;24.170;2023-07-31T01:41:24;93564.41;;;21.51;nan
23166;BME280;11751;42.700;24.170;2023-07-31T01:43:49;93557.88;;;21.48;nan
23166;BME280;11751;42.700;24.170;2023-07-31T01:46:14;93558.69;;;21.35;nan
23166;BME280;11751;42.700;24.170;2023-07-31T01:48:40;93557.38;;;21.23;nan
23166;BME280;11751;42.700;24.170;2023-07-31T01:51:05;93549.94;;;21.31;nan
23166;BME280;11751;42.700;24.170;2023-07-31T01:53:31;93538.63;;;21.18;nan
23166;BME280;11751;42.700;24.170;2023-07-31T01:55:56;93542.31;;;21.20;nan
23166;BME280;11751;42.700;24.170;2023-07-31T01:58:22;93541.91;;;21.12;nan
23166;BME280;11751;42.700;24.170;2023-07-31T02:00:47;93544.50;;;21.06;nan
23166;BME280;11751;42.700;24.170;2023-07-31T02:03:13;93541.56;;;21.20;nan
23166;BME280;11751;42.700;24.170;2023-07-31T02:05:48;93528.94;;;21.38;nan
23166;BME280;11751;42.700;24.170;2023-07-31T02:08:15;93526.72;;;21.52;nan
23166;BME280;11751;42.700;24.170;2023-07-31T02:10:40;93514.69;;;21.53;nan
23166;BME280;11751;42.700;24.170;2023-07-31T02:13:06;93514.25;;;21.59;nan
23166;BME280;11751;42.700;24.170;2023-07-31T02:15:31;93510.00;;;21.60;nan
23166;BME280;11751;42.700;24.170;2023-07-31T02:17:57;93514.63;;;21.67;nan
23166;BME280;11751;42.700;24.170;2023-07-31T02:20:22;93516.09;;;21.68;nan
23166;BME280;11751;42.700;24.170;2023-07-31T02:22:48;93516.16;;;21.70;nan
23166;BME280;11751;42.700;24.170;2023-07-31T02:25:13;93523.25;;;21.69;nan
23166;BME280;11751;42.700;24.170;2023-07-31T02:27:39;93535.75;;;21.62;nan
23166;BME280;11751;42.700;24.170;2023-07-31T02:30:05;93536.84;;;21.55;nan
23166;BME280;11751;42.700;24.170;2023-07-31T02:32:30;93542.94;;;21.63;nan
23166;BME280;11751;42.700;24.170;2023-07-31T02:34:56;93552.47;;;21.54;nan
23166;BME280;11751;42.700;24.170;2023-07-31T02:37:21;93558.88;;;21.54;nan
23166;BME280;11751;42.700;24.170;2023-07-31T02:39:47;93551.56;;;21.65;nan
23166;BME280;11751;42.700;24.170;2023-07-31T02:42:13;93556.69;;;21.53;nan
23166;BME280;11751;42.700;24.170;2023-07-31T02:44:39;93559.81;;;21.59;nan
23166;BME280;11751;42.700;24.170;2023-07-31T02:47:04;93553.59;;;21.62;nan
23166;BME280;11751;42.700;24.170;2023-07-31T02:49:29;93554.25;;;21.32;nan
23166;BME280;11751;42.700;24.170;2023-07-31T02:51:55;93563.63;;;21.19;nan
23166;BME280;11751;42.700;24.170;2023-07-31T02:54:20;93564.56;;;21.24;nan
23166;BME280;11751;42.700;24.170;2023-07-31T02:56:47;93573.06;;;21.08;nan
23166;BME280;11751;42.700;24.170;2023-07-31T02:59:13;93574.13;;;21.01;nan
23166;BME280;11751;42.700;24.170;2023-07-31T03:01:38;93575.91;;;21.08;nan
23166;BME280;11751;42.700;24.170;2023-07-31T03:04:04;93575.44;;;20.98;nan
23166;BME280;11751;42.700;24.170;2023-07-31T03:06:29;93579.09;;;21.01;nan
23166;BME280;11751;42.700;24.170;2023-07-31T03:08:55;93578.66;;;21.06;nan
23166;BME280;11751;42.700;24.170;2023-07-31T03:11:20;93582.28;;;20.93;nan
23166;BME280;11751;42.700;24.170;2023-07-31T03:13:45;93576.53;;;20.78;nan
23166;BME280;11751;42.700;24.170;2023-07-31T03:16:11;93586.56;;;20.65;nan
23166;BME280;11751;42.700;24.170;2023-07-31T03:18:36;93588.22;;;20.70;nan
23166;BME280;11751;42.700;24.170;2023-07-31T03:21:02;93590.22;;;20.68;nan
23166;BME280;11751;42.700;24.170;2023-07-31T03:23:27;93591.16;;;20.72;nan
23166;BME280;11751;42.700;24.170;2023-07-31T03:26:00;93584.00;;;20.71;nan
23166;BME280;11751;42.700;24.170;2023-07-31T03:28:26;93591.19;;;20.59;nan
23166;BME280;11751;42.700;24.170;2023-07-31T03:30:52;93602.69;;;20.61;nan
23166;BME280;11751;42.700;24.170;2023-07-31T03:33:18;93597.22;;;20.52;nan
23166;BME280;11751;42.700;24.170;2023-07-31T03:35:44;93598.88;;;20.70;nan
23166;BME280;11751;42.700;24.170;2023-07-31T03:38:09;93597.50;;;20.71;nan
23166;BME280;11751;42.700;24.170;2023-07-31T03:40:35;93596.84;;;20.72;nan
23166;BME280;11751;42.700;24.170;2023-07-31T03:43:00;93592.63;;;20.73;nan
23166;BME280;11751;42.700;24.170;2023-07-31T03:45:25;93603.72;;;20.67;nan
23166;BME280;11751;42.700;24.170;2023-07-31T03:47:51;93596.00;;;20.83;nan
23166;BME280;11751;42.700;24.170;2023-07-31T03:50:16;93599.91;;;20.90;nan
23166;BME280;11751;42.700;24.170;2023-07-31T03:52:42;93608.53;;;20.92;nan
23166;BME280;11751;42.700;24.170;2023-07-31T03:55:07;93599.25;;;20.91;nan
23166;BME280;11751;42.700;24.170;2023-07-31T03:57:33;93587.25;;;20.93;nan
23166;BME280;11751;42.700;24.170;2023-07-31T03:59:58;93595.19;;;21.10;nan
23166;BME280;11751;42.700;24.170;2023-07-31T04:02:24;93604.03;;;21.16;nan
23166;BME280;11751;42.700;24.170;2023-07-31T04:04:49;93610.25;;;21.12;nan
23166;BME280;11751;42.700;24.170;2023-07-31T04:07:15;93608.44;;;21.19;nan
23166;BME280;11751;42.700;24.170;2023-07-31T04:09:40;93613.03;;;21.26;nan
23166;BME280;11751;42.700;24.170;2023-07-31T04:12:06;93628.88;;;21.29;nan
23166;BME280;11751;42.700;24.170;2023-07-31T04:14:31;93617.63;;;21.17;nan
23166;BME280;11751;42.700;24.170;2023-07-31T04:16:57;93625.19;;;21.26;nan
23166;BME280;11751;42.700;24.170;2023-07-31T04:19:22;93614.06;;;21.32;nan
23166;BME280;11751;42.700;24.170;2023-07-31T04:21:47;93628.31;;;21.32;nan
23166;BME280;11751;42.700;24.170;2023-07-31T04:24:13;93629.63;;;21.29;nan
23166;BME280;11751;42.700;24.170;2023-07-31T04:26:38;93628.13;;;21.28;nan
23166;BME280;11751;42.700;24.170;2023-07-31T04:29:04;93642.06;;;21.22;nan
23166;BME280;11751;42.700;24.170;2023-07-31T04:31:29;93637.84;;;21.23;nan
23166;BME280;11751;42.700;24.170;2023-07-31T04:33:54;93624.59;;;21.14;nan
23166;BME280;11751;42.700;24.170;2023-07-31T04:36:20;93637.16;;;21.38;nan
23166;BME280;11751;42.700;24.170;2023-07-31T04:38:45;93641.19;;;21.33;nan
23166;BME280;11751;42.700;24.170;2023-07-31T04:41:11;93641.56;;;21.41;nan
23166;BME280;11751;42.700;24.170;2023-07-31T04:43:36;93638.78;;;21.28;nan
23166;BME280;11751;42.700;24.170;2023-07-31T04:46:04;93639.72;;;21.32;nan
23166;BME280;11751;42.700;24.170;2023-07-31T04:48:30;93634.81;;;21.48;nan
23166;BME280;11751;42.700;24.170;2023-07-31T04:50:55;93612.59;;;21.60;nan
23166;BME280;11751;42.700;24.170;2023-07-31T04:53:20;93607.28;;;21.68;nan
23166;BME280;11751;42.700;24.170;2023-07-31T04:55:46;93620.69;;;21.65;nan
23166;BME280;11751;42.700;24.170;2023-07-31T04:58:11;93623.59;;;21.52;nan
23166;BME280;11751;42.700;24.170;2023-07-31T05:00:37;93631.63;;;21.55;nan
23166;BME280;11751;42.700;24.170;2023-07-31T05:03:02;93628.63;;;21.67;nan
23166;BME280;11751;42.700;24.170;2023-07-31T05:05:27;93629.53;;;21.71;nan
23166;BME280;11751;42.700;24.170;2023-07-31T05:07:53;93636.72;;;21.88;nan
23166;BME280;11751;42.700;24.170;2023-07-31T05:10:18;93626.41;;;22.12;nan
23166;BME280;11751;42.700;24.170;2023-07-31T05:12:44;93626.34;;;22.73;nan
23166;BME280;11751;42.700;24.170;2023-07-31T05:15:09;93626.59;;;22.79;nan
23166;BME280;11751;42.700;24.170;2023-07-31T05:17:35;93632.81;;;23.24;nan
23166;BME280;11751;42.700;24.170;2023-07-31T05:20:00;93628.41;;;23.56;nan
23166;BME280;11751;42.700;24.170;2023-07-31T05:22:26;93626.81;;;24.05;nan
23166;BME280;11751;42.700;24.170;2023-07-31T05:24:51;93617.16;;;24.72;nan
23166;BME280;11751;42.700;24.170;2023-07-31T05:27:16;93624.16;;;25.08;nan
23166;BME280;11751;42.700;24.170;2023-07-31T05:29:44;93628.59;;;25.54;nan
23166;BME280;11751;42.700;24.170;2023-07-31T05:32:10;93626.41;;;25.52;nan
23166;BME280;11751;42.700;24.170;2023-07-31T05:34:35;93612.66;;;25.27;nan
23166;BME280;11751;42.700;24.170;2023-07-31T05:37:00;93617.13;;;25.11;nan
23166;BME280;11751;42.700;24.170;2023-07-31T05:39:26;93619.59;;;25.20;nan
23166;BME280;11751;42.700;24.170;2023-07-31T05:41:51;93617.78;;;25.31;nan
23166;BME280;11751;42.700;24.170;2023-07-31T05:44:16;93618.22;;;25.02;nan
23166;BME280;11751;42.700;24.170;2023-07-31T05:46:42;93613.56;;;24.91;nan
23166;BME280;11751;42.700;24.170;2023-07-31T05:49:07;93609.34;;;25.13;nan
23166;BME280;11751;42.700;24.170;2023-07-31T05:51:33;93611.13;;;25.46;nan
23166;BME280;11751;42.700;24.170;2023-07-31T05:53:58;93608.34;;;25.93;nan
23166;BME280;11751;42.700;24.170;2023-07-31T05:56:23;93613.31;;;26.13;nan
23166;BME280;11751;42.700;24.170;2023-07-31T05:58:49;93617.41;;;26.06;nan
23166;BME280;11751;42.700;24.170;2023-07-31T06:01:16;93608.03;;;26.29;nan
23166;BME280;11751;42.700;24.170;2023-07-31T06:03:42;93604.84;;;26.19;nan
23166;BME280;11751;42.700;24.170;2023-07-31T06:06:07;93616.41;;;26.21;nan
23166;BME280;11751;42.700;24.170;2023-07-31T06:08:33;93604.03;;;26.64;nan
23166;BME280;11751;42.700;24.170;2023-07-31T06:10:58;93615.97;;;26.54;nan
23166;BME280;11751;42.700;24.170;2023-07-31T06:13:24;93599.97;;;26.24;nan
23166;BME280;11751;42.700;24.170;2023-07-31T06:15:49;93602.53;;;26.37;nan
23166;BME280;11751;42.700;24.170;2023-07-31T06:18:14;93599.47;;;26.31;nan
23166;BME280;11751;42.700;24.170;2023-07-31T06:20:40;93598.22;;;26.13;nan
23166;BME280;11751;42.700;24.170;2023-07-31T06:23:06;93607.56;;;26.13;nan
23166;BME280;11751;42.700;24.170;2023-07-31T06:25:31;93592.78;;;26.23;nan
23166;BME280;11751;42.700;24.170;2023-07-31T06:27:57;93599.88;;;26.43;nan
23166;BME280;11751;42.700;24.170;2023-07-31T06:30:22;93592.03;;;26.46;nan
23166;BME280;11751;42.700;24.170;2023-07-31T06:32:47;93592.59;;;26.40;nan
23166;BME280;11751;42.700;24.170;2023-07-31T06:35:13;93589.22;;;26.48;nan
23166;BME280;11751;42.700;24.170;2023-07-31T06:37:38;93591.41;;;26.49;nan
23166;BME280;11751;42.700;24.170;2023-07-31T06:40:09;93592.59;;;26.66;nan
23166;BME280;11751;42.700;24.170;2023-07-31T06:42:35;93589.41;;;26.30;nan
23166;BME280;11751;42.700;24.170;2023-07-31T06:45:01;93585.69;;;26.26;nan
23166;BME280;11751;42.700;24.170;2023-07-31T06:47:27;93586.91;;;26.42;nan
23166;BME280;11751;42.700;24.170;2023-07-31T06:49:52;93596.59;;;26.55;nan
23166;BME280;11751;42.700;24.170;2023-07-31T06:52:18;93587.97;;;26.55;nan
23166;BME280;11751;42.700;24.170;2023-07-31T06:54:43;93592.78;;;26.46;nan
23166;BME280;11751;42.700;24.170;2023-07-31T06:57:09;93585.09;;;26.80;nan
23166;BME280;11751;42.700;24.170;2023-07-31T06:59:34;93587.03;;;26.97;nan
23166;BME280;11751;42.700;24.170;2023-07-31T07:01:59;93587.59;;;27.19;nan
23166;BME280;11751;42.700;24.170;2023-07-31T07:04:25;93592.78;;;27.24;nan
23166;BME280;11751;42.700;24.170;2023-07-31T07:06:51;93595.81;;;27.30;nan
23166;BME280;11751;42.700;24.170;2023-07-31T07:09:17;93589.06;;;27.20;nan
23166;BME280;11751;42.700;24.170;2023-07-31T07:11:43;93600.94;;;27.34;nan
23166;BME280;11751;42.700;24.170;2023-07-31T07:14:09;93605.69;;;27.51;nan
23166;BME280;11751;42.700;24.170;2023-07-31T07:16:35;93602.81;;;27.51;nan
23166;BME280;11751;42.700;24.170;2023-07-31T07:19:00;93601.16;;;27.42;nan
23166;BME280;11751;42.700;24.170;2023-07-31T07:21:26;93598.84;;;27.36;nan
23166;BME280;11751;42.700;24.170;2023-07-31T07:23:51;93596.94;;;27.47;nan
23166;BME280;11751;42.700;24.170;2023-07-31T07:26:16;93608.59;;;27.80;nan
23166;BME280;11751;42.700;24.170;2023-07-31T07:28:42;93604.78;;;27.72;nan
23166;BME280;11751;42.700;24.170;2023-07-31T07:31:08;93613.69;;;27.54;nan
23166;BME280;11751;42.700;24.170;2023-07-31T07:33:33;93599.78;;;27.45;nan
23166;BME280;11751;42.700;24.170;2023-07-31T07:36:02;93602.16;;;27.25;nan
23166;BME280;11751;42.700;24.170;2023-07-31T07:38:27;93601.00;;;27.08;nan
23166;BME280;11751;42.700;24.170;2023-07-31T07:40:52;93612.53;;;27.38;nan
23166;BME280;11751;42.700;24.170;2023-07-31T07:43:18;93613.22;;;27.64;nan
23166;BME280;11751;42.700;24.170;2023-07-31T07:45:44;93615.13;;;27.82;nan
23166;BME280;11751;42.700;24.170;2023-07-31T07:48:09;93615.31;;;27.90;nan
23166;BME280;11751;42.700;24.170;2023-07-31T07:50:35;93618.59;;;28.08;nan
23166;BME280;11751;42.700;24.170;2023-07-31T07:53:00;93624.25;;;28.02;nan
23166;BME280;11751;42.700;24.170;2023-07-31T07:55:25;93625.47;;;27.93;nan
23166;BME280;11751;42.700;24.170;2023-07-31T07:57:51;93628.84;;;28.15;nan
23166;BME280;11751;42.700;24.170;2023-07-31T08:00:16;93620.59;;;27.71;nan
23166;BME280;11751;42.700;24.170;2023-07-31T08:02:43;93618.84;;;27.30;nan
23166;BME280;11751;42.700;24.170;2023-07-31T08:05:08;93609.38;;;27.82;nan
23166;BME280;11751;42.700;24.170;2023-07-31T08:07:34;93607.38;;;28.20;nan
23166;BME280;11751;42.700;24.170;2023-07-31T08:09:59;93615.13;;;28.45;nan
23166;BME280;11751;42.700;24.170;2023-07-31T08:12:25;93609.19;;;28.06;nan
23166;BME280;11751;42.700;24.170;2023-07-31T08:14:50;93612.25;;;28.14;nan
23166;BME280;11751;42.700;24.170;2023-07-31T08:17:16;93612.38;;;27.88;nan
23166;BME280;11751;42.700;24.170;2023-07-31T08:19:42;93614.97;;;28.06;nan
23166;BME280;11751;42.700;24.170;2023-07-31T08:22:07;93618.50;;;27.46;nan
23166;BME280;11751;42.700;24.170;2023-07-31T08:24:32;93617.25;;;27.53;nan
23166;BME280;11751;42.700;24.170;2023-07-31T08:26:58;93629.16;;;27.14;nan
23166;BME280;11751;42.700;24.170;2023-07-31T08:29:24;93626.88;;;27.08;nan
23166;BME280;11751;42.700;24.170;2023-07-31T08:31:50;93624.78;;;27.66;nan
23166;BME280;11751;42.700;24.170;2023-07-31T08:34:15;93621.09;;;28.22;nan
23166;BME280;11751;42.700;24.170;2023-07-31T08:36:41;93628.94;;;27.61;nan
23166;BME280;11751;42.700;24.170;2023-07-31T08:39:06;93611.56;;;27.57;nan
23166;BME280;11751;42.700;24.170;2023-07-31T08:41:37;93616.53;;;27.81;nan
23166;BME280;11751;42.700;24.170;2023-07-31T08:44:03;93617.56;;;27.10;nan
23166;BME280;11751;42.700;24.170;2023-07-31T08:46:29;93623.31;;;27.10;nan
23166;BME280;11751;42.700;24.170;2023-07-31T08:48:55;93617.41;;;27.31;nan
23166;BME280;11751;42.700;24.170;2023-07-31T08:51:21;93614.78;;;27.69;nan
23166;BME280;11751;42.700;24.170;2023-07-31T08:53:47;93631.91;;;27.63;nan
23166;BME280;11751;42.700;24.170;2023-07-31T08:56:13;93617.03;;;27.45;nan
23166;BME280;11751;42.700;24.170;2023-07-31T08:58:40;93625.28;;;27.58;nan
23166;BME280;11751;42.700;24.170;2023-07-31T09:01:07;93625.72;;;28.05;nan
23166;BME280;11751;42.700;24.170;2023-07-31T09:03:33;93629.47;;;27.53;nan
23166;BME280;11751;42.700;24.170;2023-07-31T09:06:00;93622.47;;;27.33;nan
23166;BME280;11751;42.700;24.170;2023-07-31T09:08:30;93602.28;;;27.58;nan
23166;BME280;11751;42.700;24.170;2023-07-31T09:10:59;93623.31;;;27.65;nan
23166;BME280;11751;42.700;24.170;2023-07-31T09:13:24;93629.84;;;26.87;nan
23166;BME280;11751;42.700;24.170;2023-07-31T09:15:50;93644.28;;;26.40;nan
23166;BME280;11751;42.700;24.170;2023-07-31T09:18:15;93626.28;;;26.63;nan
23166;BME280;11751;42.700;24.170;2023-07-31T09:20:44;93623.91;;;26.81;nan
23166;BME280;11751;42.700;24.170;2023-07-31T09:23:13;93630.16;;;26.48;nan
23166;BME280;11751;42.700;24.170;2023-07-31T09:25:41;93630.97;;;26.76;nan
23166;BME280;11751;42.700;24.170;2023-07-31T09:28:09;93622.38;;;26.78;nan
23166;BME280;11751;42.700;24.170;2023-07-31T09:30:49;93636.94;;;26.35;nan
23166;BME280;11751;42.700;24.170;2023-07-31T09:33:15;93627.34;;;26.50;nan
23166;BME280;11751;42.700;24.170;2023-07-31T09:35:40;93619.63;;;26.82;nan
23166;BME280;11751;42.700;24.170;2023-07-31T09:38:12;93619.16;;;27.17;nan
23166;BME280;11751;42.700;24.170;2023-07-31T09:40:40;93614.59;;;27.06;nan
23166;BME280;11751;42.700;24.170;2023-07-31T09:43:07;93619.03;;;27.11;nan
23166;BME280;11751;42.700;24.170;2023-07-31T09:45:41;93625.88;;;27.00;nan
23166;BME280;11751;42.700;24.170;2023-07-31T09:48:08;93626.63;;;27.00;nan
23166;BME280;11751;42.700;24.170;2023-07-31T09:50:37;93616.38;;;27.75;nan
23166;BME280;11751;42.700;24.170;2023-07-31T09:53:04;93625.59;;;28.29;nan
23166;BME280;11751;42.700;24.170;2023-07-31T09:55:29;93632.13;;;28.31;nan
23166;BME280;11751;42.700;24.170;2023-07-31T09:57:57;93625.50;;;27.95;nan
23166;BME280;11751;42.700;24.170;2023-07-31T10:00:23;93633.50;;;27.70;nan
23166;BME280;11751;42.700;24.170;2023-07-31T10:02:52;93632.28;;;27.78;nan
23166;BME280;11751;42.700;24.170;2023-07-31T10:05:19;93638.22;;;27.86;nan
23166;BME280;11751;42.700;24.170;2023-07-31T10:07:54;93638.41;;;28.55;nan
23166;BME280;11751;42.700;24.170;2023-07-31T10:10:22;93636.28;;;28.24;nan
23166;BME280;11751;42.700;24.170;2023-07-31T10:12:52;93644.47;;;28.06;nan
23166;BME280;11751;42.700;24.170;2023-07-31T10:15:18;93631.59;;;28.09;nan
23166;BME280;11751;42.700;24.170;2023-07-31T10:17:44;93638.72;;;28.06;nan
23166;BME280;11751;42.700;24.170;2023-07-31T10:20:11;93632.78;;;28.30;nan
23166;BME280;11751;42.700;24.170;2023-07-31T10:22:38;93634.22;;;27.99;nan
23166;BME280;11751;42.700;24.170;2023-07-31T10:25:04;93626.41;;;28.33;nan
23166;BME280;11751;42.700;24.170;2023-07-31T10:27:35;93636.91;;;28.52;nan
23166;BME280;11751;42.700;24.170;2023-07-31T10:30:02;93613.53;;;27.48;nan
23166;BME280;11751;42.700;24.170;2023-07-31T10:32:29;93619.00;;;28.24;nan
23166;BME280;11751;42.700;24.170;2023-07-31T10:34:55;93617.13;;;28.70;nan
23166;BME280;11751;42.700;24.170;2023-07-31T10:42:31;93595.19;;;29.67;nan
23166;BME280;11751;42.700;24.170;2023-07-31T10:44:58;93596.88;;;29.39;nan
23166;BME280;11751;42.700;24.170;2023-07-31T10:47:24;93595.88;;;29.65;nan
23166;BME280;11751;42.700;24.170;2023-07-31T10:49:50;93593.69;;;30.07;nan
23166;BME280;11751;42.700;24.170;2023-07-31T10:52:20;93593.88;;;30.19;nan
23166;BME280;11751;42.700;24.170;2023-07-31T10:54:49;93589.44;;;30.12;nan
23166;BME280;11751;42.700;24.170;2023-07-31T10:57:22;93597.13;;;29.54;nan
23166;BME280;11751;42.700;24.170;2023-07-31T10:59:48;93583.06;;;29.76;nan
23166;BME280;11751;42.700;24.170;2023-07-31T11:02:27;93588.94;;;29.80;nan
23166;BME280;11751;42.700;24.170;2023-07-31T11:05:10;93588.09;;;29.35;nan
23166;BME280;11751;42.700;24.170;2023-07-31T11:07:48;93592.22;;;29.24;nan
23166;BME280;11751;42.700;24.170;2023-07-31T11:10:18;93593.16;;;28.97;nan
23166;BME280;11751;42.700;24.170;2023-07-31T11:12:45;93596.00;;;28.95;nan
23166;BME280;11751;42.700;24.170;2023-07-31T11:15:10;93598.25;;;28.98;nan
23166;BME280;11751;42.700;24.170;2023-07-31T11:17:40;93603.88;;;28.57;nan
23166;BME280;11751;42.700;24.170;2023-07-31T11:20:06;93600.34;;;28.27;nan
23166;BME280;11751;42.700;24.170;2023-07-31T11:22:35;93598.81;;;27.93;nan
23166;BME280;11751;42.700;24.170;2023-07-31T11:25:03;93582.41;;;28.29;nan
23166;BME280;11751;42.700;24.170;2023-07-31T11:27:29;93581.66;;;28.97;nan
23166;BME280;11751;42.700;24.170;2023-07-31T11:30:00;93581.22;;;29.52;nan
23166;BME280;11751;42.700;24.170;2023-07-31T11:32:27;93583.19;;;29.84;nan
23166;BME280;11751;42.700;24.170;2023-07-31T11:34:53;93594.84;;;29.08;nan
23166;BME280;11751;42.700;24.170;2023-07-31T11:37:19;93588.59;;;29.62;nan
23166;BME280;11751;42.700;24.170;2023-07-31T11:39:58;93581.53;;;28.22;nan
23166;BME280;11751;42.700;24.170;2023-07-31T11:42:23;93578.88;;;28.32;nan
23166;BME280;11751;42.700;24.170;2023-07-31T11:44:49;93578.53;;;28.52;nan
23166;BME280;11751;42.700;24.170;2023-07-31T11:47:16;93596.13;;;28.01;nan
23166;BME280;11751;42.700;24.170;2023-07-31T11:49:42;93585.94;;;27.67;nan
23166;BME280;11751;42.700;24.170;2023-07-31T11:52:08;93571.50;;;28.25;nan
23166;BME280;11751;42.700;24.170;2023-07-31T11:54:34;93570.91;;;28.66;nan
23166;BME280;11751;42.700;24.170;2023-07-31T11:57:00;93577.44;;;28.66;nan
23166;BME280;11751;42.700;24.170;2023-07-31T11:59:27;93566.50;;;28.96;nan
23166;BME280;11751;42.700;24.170;2023-07-31T12:01:53;93573.59;;;29.29;nan
23166;BME280;11751;42.700;24.170;2023-07-31T12:04:19;93565.41;;;29.54;nan
23166;BME280;11751;42.700;24.170;2023-07-31T12:06:47;93553.34;;;29.68;nan
23166;BME280;11751;42.700;24.170;2023-07-31T12:09:14;93575.16;;;29.36;nan
23166;BME280;11751;42.700;24.170;2023-07-31T12:11:47;93559.00;;;28.81;nan
23166;BME280;11751;42.700;24.170;2023-07-31T12:14:28;93566.88;;;28.12;nan
23166;BME280;11751;42.700;24.170;2023-07-31T12:16:59;93569.63;;;28.06;nan
23166;BME280;11751;42.700;24.170;2023-07-31T12:19:25;93555.22;;;28.06;nan
23166;BME280;11751;42.700;24.170;2023-07-31T12:22:10;93564.50;;;28.34;nan
23166;BME280;11751;42.700;24.170;2023-07-31T12:24:36;93552.22;;;28.67;nan
23166;BME280;11751;42.700;24.170;2023-07-31T12:27:11;93550.97;;;28.78;nan
23166;BME280;11751;42.700;24.170;2023-07-31T12:29:38;93538.31;;;28.91;nan
23166;BME280;11751;42.700;24.170;2023-07-31T12:32:05;93538.97;;;28.87;nan
23166;BME280;11751;42.700;24.170;2023-07-31T12:34:43;93542.09;;;28.66;nan
23166;BME280;11751;42.700;24.170;2023-07-31T12:37:08;93540.16;;;28.41;nan
23166;BME280;11751;42.700;24.170;2023-07-31T12:39:34;93528.25;;;28.57;nan
23166;BME280;11751;42.700;24.170;2023-07-31T12:41:59;93521.78;;;28.58;nan
23166;BME280;11751;42.700;24.170;2023-07-31T12:44:25;93520.38;;;28.59;nan
23166;BME280;11751;42.700;24.170;2023-07-31T12:46:50;93512.53;;;29.01;nan
23166;BME280;11751;42.700;24.170;2023-07-31T12:49:15;93516.72;;;28.94;nan
23166;BME280;11751;42.700;24.170;2023-07-31T12:51:41;93522.34;;;28.49;nan
23166;BME280;11751;42.700;24.170;2023-07-31T12:54:06;93517.09;;;28.76;nan
23166;BME280;11751;42.700;24.170;2023-07-31T12:56:32;93511.16;;;28.68;nan
23166;BME280;11751;42.700;24.170;2023-07-31T12:58:57;93502.78;;;28.43;nan
23166;BME280;11751;42.700;24.170;2023-07-31T13:01:23;93497.75;;;28.10;nan
23166;BME280;11751;42.700;24.170;2023-07-31T13:03:48;93493.41;;;28.09;nan
23166;BME280;11751;42.700;24.170;2023-07-31T13:06:14;93491.00;;;27.98;nan
23166;BME280;11751;42.700;24.170;2023-07-31T13:08:39;93502.25;;;28.19;nan
23166;BME280;11751;42.700;24.170;2023-07-31T13:11:04;93493.94;;;28.33;nan
23166;BME280;11751;42.700;24.170;2023-07-31T13:13:30;93488.72;;;28.61;nan
23166;BME280;11751;42.700;24.170;2023-07-31T13:15:56;93491.00;;;28.31;nan